createdAt,value
2022-08-29T00:00:49.407Z,9.18
2022-08-29T00:03:17.720Z,10.13
2022-08-29T00:05:49.944Z,9.38
2022-08-29T00:08:17.635Z,9.05
2022-08-29T00:10:44.867Z,8.35
2022-08-29T00:13:13.619Z,10.75
2022-08-29T00:15:45.190Z,11.30
2022-08-29T00:18:13.962Z,10.82
2022-08-29T00:20:41.805Z,10.23
2022-08-29T00:23:09.424Z,11.23
2022-08-29T00:25:37.180Z,11.10
2022-08-29T00:28:04.603Z,11.45
2022-08-29T00:30:33.362Z,11.48
2022-08-29T00:33:00.346Z,12.93
2022-08-29T00:35:33.665Z,11.20
2022-08-29T00:38:02.088Z,11.10
2022-08-29T00:40:36.269Z,10.82
2022-08-29T00:43:03.902Z,10.20
2022-08-29T00:45:31.469Z,11.05
2022-08-29T00:48:05.110Z,10.27
2022-08-29T00:50:35.435Z,11.30
2022-08-29T00:53:04.361Z,11.57
2022-08-29T00:55:34.481Z,10.10
2022-08-29T00:58:07.637Z,9.75
2022-08-29T01:00:35.013Z,9.68
2022-08-29T01:03:02.917Z,9.75
2022-08-29T01:05:29.680Z,9.65
2022-08-29T01:07:56.764Z,10.48
2022-08-29T01:10:42.244Z,11.00
2022-08-29T01:13:10.435Z,11.38
2022-08-29T01:15:40.360Z,10.93
2022-08-29T01:18:09.138Z,10.75
2022-08-29T01:21:01.751Z,11.45
2022-08-29T01:23:42.692Z,11.80
2022-08-29T01:26:11.344Z,10.65
2022-08-29T01:28:41.776Z,9.90
2022-08-29T01:31:11.628Z,10.40
2022-08-29T01:33:54.347Z,12.23
2022-08-29T01:36:25.196Z,12.77
2022-08-29T01:38:52.105Z,12.90
2022-08-29T01:41:20.798Z,12.40
2022-08-29T01:43:52.091Z,12.65
2022-08-29T01:46:30.828Z,11.90
2022-08-29T01:48:58.329Z,11.60
2022-08-29T01:51:25.642Z,11.35
2022-08-29T01:53:53.053Z,10.68
2022-08-29T01:56:27.558Z,12.13
2022-08-29T01:58:55.393Z,14.80
2022-08-29T02:01:28.189Z,13.77
2022-08-29T02:03:55.290Z,14.57
2022-08-29T02:06:22.120Z,12.30
2022-08-29T02:08:48.853Z,12.13
2022-08-29T02:11:17.522Z,15.10
2022-08-29T02:13:51.539Z,13.93
2022-08-29T02:16:19.259Z,13.32
2022-08-29T02:18:46.358Z,13.30
2022-08-29T02:21:15.475Z,16.42
2022-08-29T02:23:43.598Z,15.00
2022-08-29T02:26:10.386Z,17.02
2022-08-29T02:28:38.464Z,15.23
2022-08-29T02:31:06.661Z,16.77
2022-08-29T02:33:33.476Z,15.82
2022-08-29T02:36:00.266Z,17.25
2022-08-29T02:38:28.553Z,17.67
2022-08-29T02:40:55.850Z,19.58
2022-08-29T02:43:23.671Z,18.92
2022-08-29T02:45:50.766Z,16.90
2022-08-29T02:48:18.111Z,16.70
2022-08-29T02:50:48.217Z,16.48
2022-08-29T02:53:20.092Z,17.65
2022-08-29T02:55:47.704Z,18.27
2022-08-29T02:58:15.907Z,16.58
2022-08-29T03:00:42.945Z,17.05
2022-08-29T03:03:10.044Z,17.08
2022-08-29T03:05:37.254Z,17.42
2022-08-29T03:08:07.821Z,16.75
2022-08-29T03:10:35.053Z,18.45
2022-08-29T03:13:01.807Z,18.33
2022-08-29T03:15:29.174Z,21.08
2022-08-29T03:17:56.413Z,20.83
2022-08-29T03:20:24.648Z,22.30
2022-08-29T03:22:53.697Z,20.92
2022-08-29T03:25:21.644Z,20.75
2022-08-29T03:27:48.556Z,20.67
2022-08-29T03:30:17.861Z,20.15
2022-08-29T03:32:45.666Z,20.50
2022-08-29T03:35:18.262Z,17.55
2022-08-29T03:37:45.507Z,16.05
2022-08-29T03:40:13.292Z,16.38
2022-08-29T03:42:41.138Z,15.65
2022-08-29T03:45:13.390Z,15.20
2022-08-29T03:47:41.136Z,17.17
2022-08-29T03:50:08.473Z,16.02
2022-08-29T03:52:35.220Z,17.50
2022-08-29T03:55:02.191Z,15.18
2022-08-29T03:57:32.598Z,14.68
2022-08-29T04:00:00.103Z,15.00
2022-08-29T04:02:27.037Z,15.80
2022-08-29T04:05:08.858Z,15.75
2022-08-29T04:07:41.803Z,15.75
2022-08-29T04:10:10.602Z,16.70
2022-08-29T04:12:37.583Z,15.70
2022-08-29T04:15:05.929Z,18.30
2022-08-29T04:17:33.456Z,19.58
2022-08-29T04:20:00.554Z,20.02
2022-08-29T04:22:27.375Z,18.45
2022-08-29T04:24:54.804Z,18.80
2022-08-29T04:27:21.743Z,18.75
2022-08-29T04:29:48.650Z,18.27
2022-08-29T04:32:16.593Z,17.05
2022-08-29T04:34:43.560Z,18.70
2022-08-29T04:37:10.346Z,17.52
2022-08-29T04:39:37.395Z,18.45
2022-08-29T04:42:04.616Z,16.67
2022-08-29T04:44:31.937Z,18.90
2022-08-29T04:46:58.668Z,18.77
2022-08-29T04:49:25.793Z,18.52
2022-08-29T04:51:53.743Z,19.48
2022-08-29T04:54:20.953Z,19.65
2022-08-29T04:56:47.715Z,19.38
2022-08-29T04:59:16.605Z,21.17
2022-08-29T05:01:43.620Z,20.70
2022-08-29T05:04:14.320Z,22.08
2022-08-29T05:06:41.915Z,21.35
2022-08-29T05:09:08.787Z,21.48
2022-08-29T05:11:35.683Z,19.83
2022-08-29T05:14:02.675Z,22.23
2022-08-29T05:16:30.870Z,24.48
2022-08-29T05:18:59.662Z,22.52
2022-08-29T05:21:35.212Z,21.48
2022-08-29T05:24:05.651Z,20.33
2022-08-29T05:26:35.947Z,21.27
2022-08-29T05:29:04.198Z,21.10
2022-08-29T05:31:36.908Z,21.17
2022-08-29T05:34:18.389Z,20.02
2022-08-29T05:36:52.011Z,17.98
2022-08-29T05:39:18.695Z,18.55
2022-08-29T05:41:45.657Z,18.75
2022-08-29T05:44:12.639Z,19.10
2022-08-29T05:46:40.048Z,17.58
2022-08-29T05:49:06.813Z,17.30
2022-08-29T05:51:38.797Z,17.02
2022-08-29T05:54:06.844Z,16.38
2022-08-29T05:56:33.637Z,17.30
2022-08-29T05:59:00.540Z,15.75
2022-08-29T06:01:32.899Z,15.55
2022-08-29T06:04:00.605Z,17.60
2022-08-29T06:06:28.815Z,17.25
2022-08-29T06:08:56.642Z,17.38
2022-08-29T06:11:31.808Z,14.32
2022-08-29T06:13:59.526Z,13.57
2022-08-29T06:16:27.822Z,13.27
2022-08-29T06:18:54.930Z,13.88
2022-08-29T06:21:22.149Z,18.15
2022-08-29T06:23:49.107Z,19.25
2022-08-29T06:26:16.480Z,19.98
2022-08-29T06:28:45.995Z,20.83
2022-08-29T06:31:17.410Z,18.92
2022-08-29T06:33:44.477Z,17.58
2022-08-29T06:36:12.473Z,17.08
2022-08-29T06:38:39.221Z,18.27
2022-08-29T06:41:09.053Z,16.75
2022-08-29T06:43:36.109Z,17.25
2022-08-29T06:46:03.986Z,18.33
2022-08-29T06:48:31.045Z,20.05
2022-08-29T06:51:00.654Z,16.17
2022-08-29T06:53:32.043Z,15.82
2022-08-29T06:56:05.348Z,18.23
2022-08-29T06:58:32.836Z,17.08
2022-08-29T07:01:04.978Z,16.40
2022-08-29T07:03:31.777Z,20.15
2022-08-29T07:05:58.522Z,17.13
2022-08-29T07:08:25.424Z,18.13
2022-08-29T07:10:52.293Z,16.85
2022-08-29T07:13:18.998Z,16.58
2022-08-29T07:15:45.823Z,17.83
2022-08-29T07:18:12.702Z,15.43
2022-08-29T07:20:40.186Z,19.80
2022-08-29T07:23:08.130Z,18.63
2022-08-29T07:25:36.490Z,24.45
2022-08-29T07:28:04.827Z,20.10
2022-08-29T07:30:32.405Z,18.40
2022-08-29T07:32:59.970Z,22.98
2022-08-29T07:35:30.360Z,20.83
2022-08-29T07:38:03.934Z,19.88
2022-08-29T07:40:31.050Z,17.70
2022-08-29T07:42:57.819Z,18.95
2022-08-29T07:45:24.587Z,17.38
2022-08-29T07:47:51.525Z,18.58
2022-08-29T07:50:18.658Z,19.70
2022-08-29T07:52:45.612Z,18.77
2022-08-29T07:55:12.460Z,17.58
2022-08-29T07:57:39.692Z,17.27
2022-08-29T08:00:10.517Z,16.52
2022-08-29T08:02:37.276Z,15.60
2022-08-29T08:05:06.790Z,14.57
2022-08-29T08:07:35.209Z,13.32
2022-08-29T08:10:03.303Z,12.65
2022-08-29T08:12:30.173Z,13.82
2022-08-29T08:14:57.332Z,12.80
2022-08-29T08:17:24.433Z,12.57
2022-08-29T08:19:51.444Z,13.93
2022-08-29T08:22:18.191Z,13.13
2022-08-29T08:24:45.187Z,14.32
2022-08-29T08:27:12.146Z,13.45
2022-08-29T08:29:39.052Z,13.88
2022-08-29T08:32:05.843Z,15.35
2022-08-29T08:34:35.739Z,15.18
2022-08-29T08:37:07.609Z,13.43
2022-08-29T08:39:35.781Z,12.40
2022-08-29T08:42:15.835Z,11.70
2022-08-29T08:45:08.290Z,12.23
2022-08-29T08:47:40.806Z,17.08
2022-08-29T08:50:37.893Z,16.02
2022-08-29T08:53:13.122Z,13.93
2022-08-29T08:55:42.793Z,11.55
2022-08-29T08:58:27.219Z,11.88
2022-08-29T09:01:03.803Z,12.82
2022-08-29T09:06:36.413Z,13.77
2022-08-29T09:09:14.395Z,14.55
2022-08-29T09:12:11.967Z,12.07
2022-08-29T09:15:00.089Z,11.63
2022-08-29T09:17:47.857Z,13.77
2022-08-29T09:20:24.848Z,13.32
2022-08-29T09:23:33.275Z,12.82
2022-08-29T09:26:00.078Z,11.60
2022-08-29T09:28:26.963Z,9.73
2022-08-29T09:31:29.551Z,10.80
2022-08-29T09:34:11.960Z,11.00
2022-08-29T09:36:48.892Z,9.32
2022-08-29T09:39:23.242Z,8.40
2022-08-29T09:41:57.324Z,8.60
2022-08-29T09:44:32.147Z,8.32
2022-08-29T09:47:28.997Z,8.95
2022-08-29T09:50:04.786Z,8.48
2022-08-29T09:52:32.512Z,8.20
2022-08-29T09:55:36.391Z,7.13
2022-08-29T09:58:15.716Z,6.68
2022-08-29T10:01:01.651Z,7.60
2022-08-29T10:03:33.715Z,6.75
2022-08-29T10:06:08.861Z,6.15
2022-08-29T10:08:38.111Z,6.43
2022-08-29T10:11:17.431Z,6.90
2022-08-29T10:14:07.230Z,6.20
2022-08-29T10:16:53.945Z,5.90
2022-08-29T10:19:33.063Z,7.50
2022-08-29T10:22:37.610Z,6.65
2022-08-29T10:25:17.671Z,6.40
2022-08-29T10:28:00.462Z,6.53
2022-08-29T10:30:33.959Z,5.28
2022-08-29T10:33:19.952Z,5.88
2022-08-29T10:35:56.352Z,5.38
2022-08-29T10:38:43.849Z,5.53
2022-08-29T10:41:31.601Z,5.75
2022-08-29T10:44:22.659Z,5.65
2022-08-29T10:47:14.792Z,5.93
2022-08-29T10:49:45.135Z,5.68
2022-08-29T10:52:50.734Z,5.57
2022-08-29T10:55:29.173Z,6.28
2022-08-29T10:58:16.995Z,6.38
2022-08-29T11:00:49.046Z,5.65
2022-08-29T11:03:55.333Z,5.80
2022-08-29T11:06:27.653Z,5.72
2022-08-29T11:09:19.304Z,5.47
2022-08-29T11:12:10.135Z,5.30
2022-08-29T11:15:02.146Z,5.07
2022-08-29T11:17:38.103Z,5.20
2022-08-29T11:20:11.666Z,4.95
2022-08-29T11:23:15.263Z,5.40
2022-08-29T11:25:43.362Z,5.07
2022-08-29T11:28:32.035Z,4.70
2022-08-29T11:31:08.869Z,5.63
2022-08-29T11:34:03.618Z,5.25
2022-08-29T11:36:43.319Z,4.78
2022-08-29T11:39:29.018Z,4.63
2022-08-29T11:41:58.879Z,5.00
2022-08-29T11:44:41.187Z,4.60
2022-08-29T11:47:40.926Z,4.25
2022-08-29T11:50:22.183Z,4.88
2022-08-29T11:53:16.793Z,4.20
2022-08-29T11:56:05.202Z,4.15
2022-08-29T11:58:32.831Z,4.50
2022-08-29T12:01:00.336Z,3.80
2022-08-29T12:03:33.205Z,4.25
2022-08-29T12:06:21.711Z,4.22
2022-08-29T12:09:13.966Z,4.07
2022-08-29T12:12:02.273Z,4.30
2022-08-29T12:14:34.292Z,4.28
2022-08-29T12:17:08.601Z,3.88
2022-08-29T12:19:52.422Z,4.10
2022-08-29T12:22:53.719Z,4.40
2022-08-29T12:25:59.311Z,3.92
2022-08-29T12:28:42.153Z,4.00
2022-08-29T12:31:21.191Z,4.13
2022-08-29T12:34:06.790Z,3.72
2022-08-29T12:37:00.295Z,3.92
2022-08-29T12:39:40.580Z,3.92
2022-08-29T12:42:19.444Z,4.05
2022-08-29T12:44:57.743Z,3.88
2022-08-29T12:47:45.732Z,4.85
2022-08-29T12:50:26.670Z,4.25
2022-08-29T12:53:01.022Z,3.78
2022-08-29T12:57:57.616Z,3.85
2022-08-29T13:00:28.307Z,3.78
2022-08-29T13:02:59.387Z,3.53
2022-08-29T13:05:29.221Z,4.18
2022-08-29T13:07:58.938Z,4.20
2022-08-29T13:10:27.688Z,4.38
2022-08-29T13:13:05.997Z,3.90
2022-08-29T13:15:33.513Z,3.85
2022-08-29T13:18:00.731Z,2.83
2022-08-29T13:20:48.768Z,3.80
2022-08-29T13:23:30.226Z,3.95
2022-08-29T13:26:02.437Z,3.78
2022-08-29T13:28:43.801Z,4.07
2022-08-29T13:31:21.248Z,3.58
2022-08-29T13:33:48.004Z,3.38
2022-08-29T13:36:36.578Z,3.60
2022-08-29T13:39:28.103Z,3.58
2022-08-29T13:41:57.805Z,4.63
2022-08-29T13:44:28.544Z,3.80
2022-08-29T13:46:59.505Z,3.60
2022-08-29T13:49:28.827Z,3.63
2022-08-29T13:51:56.445Z,3.60
2022-08-29T13:54:24.272Z,3.45
2022-08-29T13:56:54.387Z,3.38
2022-08-29T13:59:25.811Z,3.15
2022-08-29T14:02:10.392Z,3.00
2022-08-29T14:04:40.811Z,3.00
2022-08-29T14:07:28.657Z,2.97
2022-08-29T14:09:55.796Z,3.03
2022-08-29T14:12:33.053Z,3.38
2022-08-29T14:15:05.367Z,3.20
2022-08-29T14:17:36.313Z,2.75
2022-08-29T14:20:03.968Z,3.20
2022-08-29T14:22:31.264Z,2.70
2022-08-29T14:24:58.039Z,3.28
2022-08-29T14:27:24.911Z,3.05
2022-08-29T14:29:51.676Z,2.80
2022-08-29T14:32:18.643Z,3.00
2022-08-29T14:34:50.885Z,3.00
2022-08-29T14:37:18.848Z,2.72
2022-08-29T14:39:49.615Z,2.72
2022-08-29T14:42:17.593Z,3.00
2022-08-29T14:44:44.754Z,2.90
2022-08-29T14:47:11.617Z,2.72
2022-08-29T14:49:38.866Z,2.95
2022-08-29T14:52:06.063Z,3.10
2022-08-29T14:54:33.296Z,2.80
2022-08-29T14:57:00.601Z,3.10
2022-08-29T14:59:28.090Z,3.10
2022-08-29T15:01:55.479Z,2.80
2022-08-29T15:04:36.282Z,3.40
2022-08-29T15:07:06.078Z,3.17
2022-08-29T15:09:33.052Z,3.15
2022-08-29T15:11:59.788Z,3.20
2022-08-29T15:14:26.552Z,3.08
2022-08-29T15:16:53.300Z,3.25
2022-08-29T15:22:09.007Z,2.92
2022-08-29T15:24:36.439Z,3.35
2022-08-29T15:27:03.669Z,3.00
2022-08-29T15:29:30.470Z,2.85
2022-08-29T15:31:57.572Z,3.30
2022-08-29T15:34:29.004Z,3.33
2022-08-29T15:36:56.802Z,2.90
2022-08-29T15:39:25.562Z,2.90
2022-08-29T15:41:52.368Z,3.20
2022-08-29T15:44:19.343Z,3.30
2022-08-29T15:46:50.743Z,3.30
2022-08-29T15:49:19.794Z,3.25
2022-08-29T15:51:47.323Z,3.40
2022-08-29T15:54:15.114Z,3.53
2022-08-29T15:56:41.959Z,3.40
2022-08-29T15:59:11.250Z,3.10
2022-08-29T16:01:47.415Z,3.00
2022-08-29T16:04:16.936Z,3.40
2022-08-29T16:06:43.675Z,3.33
2022-08-29T16:09:15.194Z,3.33
2022-08-29T16:11:48.169Z,3.33
2022-08-29T16:14:57.670Z,3.40
2022-08-29T16:17:04.841Z,3.13
2022-08-29T16:19:32.323Z,3.60
2022-08-29T16:22:04.291Z,3.53
2022-08-29T16:24:33.317Z,3.40
2022-08-29T16:27:00.207Z,3.47
2022-08-29T16:29:28.130Z,3.60
2022-08-29T16:31:57.993Z,3.83
2022-08-29T16:34:26.540Z,3.80
2022-08-29T16:37:01.084Z,3.97
2022-08-29T16:39:29.293Z,4.13
2022-08-29T16:41:56.214Z,4.05
2022-08-29T16:44:24.029Z,3.90
2022-08-29T16:46:51.993Z,3.60
2022-08-29T16:49:19.432Z,4.15
2022-08-29T16:51:46.206Z,3.80
2022-08-29T16:54:13.499Z,4.00
2022-08-29T16:56:40.432Z,4.43
2022-08-29T16:59:07.711Z,4.00
2022-08-29T17:01:46.269Z,4.40
2022-08-29T17:04:19.575Z,4.10
2022-08-29T17:06:48.120Z,4.72
2022-08-29T17:09:17.230Z,4.30
2022-08-29T17:11:44.943Z,4.38
2022-08-29T17:14:13.002Z,4.53
2022-08-29T17:16:40.557Z,4.60
2022-08-29T17:19:08.275Z,4.45
2022-08-29T17:21:35.504Z,4.15
2022-08-29T17:24:03.869Z,4.50
2022-08-29T17:26:31.284Z,4.25
2022-08-29T17:28:58.039Z,4.60
2022-08-29T17:31:24.827Z,4.45
2022-08-29T17:33:51.666Z,4.60
2022-08-29T17:36:19.400Z,4.03
2022-08-29T17:38:47.695Z,4.40
2022-08-29T17:41:19.341Z,4.03
2022-08-29T17:43:48.715Z,4.00
2022-08-29T17:46:19.630Z,4.80
2022-08-29T17:48:46.380Z,4.38
2022-08-29T17:51:13.329Z,4.55
2022-08-29T17:53:42.477Z,4.78
2022-08-29T17:56:21.142Z,4.72
2022-08-29T17:58:48.435Z,5.03
2022-08-29T18:01:16.940Z,4.97
2022-08-29T18:03:45.774Z,4.63
2022-08-29T18:06:14.909Z,4.57
2022-08-29T18:08:45.886Z,5.30
2022-08-29T18:11:16.017Z,5.40
2022-08-29T18:13:43.030Z,5.35
2022-08-29T18:16:10.552Z,5.00
2022-08-29T18:18:38.644Z,5.45
2022-08-29T18:21:05.988Z,5.43
2022-08-29T18:23:33.231Z,5.38
2022-08-29T18:26:00.902Z,5.90
2022-08-29T18:28:28.084Z,6.00
2022-08-29T18:30:55.430Z,6.28
2022-08-29T18:33:23.205Z,5.82
2022-08-29T18:35:51.983Z,6.25
2022-08-29T18:38:19.320Z,5.97
2022-08-29T18:40:47.047Z,5.70
2022-08-29T18:43:18.328Z,5.70
2022-08-29T18:45:45.149Z,6.20
2022-08-29T18:48:11.973Z,5.75
2022-08-29T18:50:38.755Z,5.90
2022-08-29T18:53:17.903Z,6.20
2022-08-29T18:55:52.213Z,6.03
2022-08-29T19:00:54.610Z,5.63
2022-08-29T19:03:21.967Z,5.72
2022-08-29T19:05:51.728Z,5.63
2022-08-29T19:08:21.335Z,5.80
2022-08-29T19:10:48.484Z,6.20
2022-08-29T19:13:16.839Z,6.22
2022-08-29T19:15:47.184Z,5.85
2022-08-29T19:18:16.044Z,6.15
2022-08-29T19:21:01.384Z,5.45
2022-08-29T19:23:29.966Z,5.95
2022-08-29T19:25:56.964Z,5.72
2022-08-29T19:28:23.971Z,5.90
2022-08-29T19:30:52.086Z,5.95
2022-08-29T19:33:20.263Z,6.45
2022-08-29T19:35:49.749Z,5.75
2022-08-29T19:38:17.481Z,6.50
2022-08-29T19:40:44.503Z,6.20
2022-08-29T19:43:14.107Z,5.85
2022-08-29T19:45:42.594Z,7.05
2022-08-29T19:48:10.758Z,6.57
2022-08-29T19:50:47.720Z,6.70
2022-08-29T19:53:20.000Z,6.55
2022-08-29T19:55:53.684Z,6.70
2022-08-29T19:58:21.690Z,6.75
2022-08-29T20:00:48.654Z,6.25
2022-08-29T20:03:16.433Z,6.47
2022-08-29T20:05:43.267Z,6.10
2022-08-29T20:08:10.319Z,6.65
2022-08-29T20:10:37.513Z,6.35
2022-08-29T20:13:04.231Z,6.72
2022-08-29T20:15:31.062Z,6.22
2022-08-29T20:17:59.961Z,6.15
2022-08-29T20:20:31.334Z,7.10
2022-08-29T20:22:58.202Z,6.25
2022-08-29T20:25:25.249Z,6.72
2022-08-29T20:27:52.926Z,7.03
2022-08-29T20:30:24.503Z,6.43
2022-08-29T20:32:51.990Z,7.22
2022-08-29T20:35:39.708Z,6.70
2022-08-29T20:38:07.161Z,7.18
2022-08-29T20:40:37.663Z,7.32
2022-08-29T20:43:04.802Z,7.50
2022-08-29T20:45:31.676Z,7.40
2022-08-29T20:47:58.437Z,6.63
2022-08-29T20:50:25.668Z,7.30
2022-08-29T20:52:54.155Z,6.70
2022-08-29T20:55:22.651Z,7.30
2022-08-29T20:57:49.355Z,7.20
2022-08-29T21:00:16.313Z,7.90
2022-08-29T21:03:01.916Z,7.72
2022-08-29T21:05:43.774Z,7.53
2022-08-29T21:08:15.063Z,8.32
2022-08-29T21:10:42.732Z,7.85
2022-08-29T21:13:10.237Z,7.50
2022-08-29T21:15:38.595Z,7.93
2022-08-29T21:18:06.114Z,8.48
2022-08-29T21:20:37.301Z,7.60
2022-08-29T21:23:13.539Z,7.50
2022-08-29T21:25:40.838Z,7.22
2022-08-29T21:28:08.276Z,7.20
2022-08-29T21:30:36.128Z,8.18
2022-08-29T21:33:03.519Z,7.82
2022-08-29T21:35:30.349Z,7.45
2022-08-29T21:37:57.142Z,7.57
2022-08-29T21:40:26.638Z,6.70
2022-08-29T21:42:55.239Z,8.02
2022-08-29T21:45:23.162Z,6.97
2022-08-29T21:47:54.987Z,8.27
2022-08-29T21:50:23.750Z,7.60
2022-08-29T21:52:50.739Z,8.10
2022-08-29T21:55:18.669Z,7.80
2022-08-29T21:57:52.083Z,8.82
2022-08-29T22:00:20.574Z,8.07
2022-08-29T22:02:48.093Z,7.78
2022-08-29T22:05:15.611Z,8.45
2022-08-29T22:07:43.164Z,8.25
2022-08-29T22:10:16.240Z,8.48
2022-08-29T22:12:43.366Z,7.95
2022-08-29T22:15:28.785Z,8.57
2022-08-29T22:17:55.529Z,7.70
2022-08-29T22:20:22.304Z,7.22
2022-08-29T22:22:49.133Z,7.78
2022-08-29T22:25:15.904Z,8.30
2022-08-29T22:27:42.715Z,7.97
2022-08-29T22:30:10.343Z,7.97
2022-08-29T22:32:37.463Z,7.95
2022-08-29T22:35:09.197Z,7.30
2022-08-29T22:37:39.530Z,7.60
2022-08-29T22:40:09.683Z,8.27
2022-08-29T22:42:37.763Z,8.00
2022-08-29T22:45:09.765Z,7.35
2022-08-29T22:47:38.384Z,7.47
2022-08-29T22:50:08.409Z,8.10
2022-08-29T22:52:35.527Z,8.07
2022-08-29T22:55:04.566Z,8.88
2022-08-29T22:57:31.364Z,8.98
2022-08-29T22:59:58.074Z,8.43
2022-08-29T23:02:24.896Z,7.80
2022-08-29T23:04:52.382Z,8.15
2022-08-29T23:07:19.565Z,7.68
2022-08-29T23:09:46.456Z,7.72
2022-08-29T23:12:14.165Z,7.55
2022-08-29T23:14:43.366Z,7.53
2022-08-29T23:17:10.126Z,8.18
2022-08-29T23:19:40.970Z,8.10
2022-08-29T23:22:09.063Z,8.10
2022-08-29T23:24:37.673Z,7.80
2022-08-29T23:27:04.860Z,8.10
2022-08-29T23:29:32.908Z,8.38
2022-08-29T23:32:00.855Z,8.00
2022-08-29T23:34:28.353Z,8.50
2022-08-29T23:36:55.087Z,8.70
2022-08-29T23:39:22.003Z,8.18
2022-08-29T23:41:48.798Z,8.02
2022-08-29T23:44:15.658Z,7.47
2022-08-29T23:46:42.482Z,8.18
2022-08-29T23:49:09.332Z,8.55
2022-08-29T23:51:36.105Z,8.80
2022-08-29T23:54:02.929Z,8.68
2022-08-29T23:56:29.645Z,8.73
2022-08-29T23:58:56.874Z,8.05
